createdAt,value
2018-06-24T00:00:17.735Z,87.40
2018-06-24T00:02:46.000Z,88.00
2018-06-24T00:05:14.212Z,87.30
2018-06-24T00:07:42.437Z,87.30
2018-06-24T00:10:10.649Z,86.80
2018-06-24T00:12:38.933Z,87.00
2018-06-24T00:15:07.244Z,88.30
2018-06-24T00:17:35.476Z,88.20
2018-06-24T00:20:03.845Z,88.60
2018-06-24T00:22:32.062Z,89.20
2018-06-24T00:25:00.281Z,89.30
2018-06-24T00:29:56.537Z,89.20
2018-06-24T00:32:24.739Z,88.70
2018-06-24T00:34:52.917Z,89.60
2018-06-24T00:37:21.151Z,90.10
2018-06-24T00:39:49.378Z,90.00
2018-06-24T00:42:17.609Z,88.80
2018-06-24T00:45:02.319Z,89.70
2018-06-24T00:47:30.546Z,90.30
2018-06-24T00:49:58.743Z,90.40
2018-06-24T00:52:26.953Z,90.50
2018-06-24T00:54:55.188Z,90.60
2018-06-24T00:57:23.464Z,91.20
2018-06-24T01:00:02.673Z,91.70
2018-06-24T01:02:30.878Z,92.10
2018-06-24T01:04:59.101Z,91.70
2018-06-24T01:07:27.362Z,92.40
2018-06-24T01:09:55.556Z,93.10
2018-06-24T01:12:23.746Z,93.20
2018-06-24T01:14:51.939Z,94.10
2018-06-24T01:17:20.139Z,93.10
2018-06-24T01:19:48.406Z,92.80
2018-06-24T01:22:16.606Z,93.20
2018-06-24T01:24:44.832Z,93.00
2018-06-24T01:27:13.072Z,93.10
2018-06-24T01:29:41.348Z,94.10
2018-06-24T01:32:09.537Z,93.70
2018-06-24T01:34:37.745Z,93.30
2018-06-24T01:39:33.897Z,92.30
2018-06-24T01:42:02.093Z,93.10
2018-06-24T01:44:30.329Z,92.60
2018-06-24T01:46:58.509Z,92.60
2018-06-24T01:49:26.756Z,92.60
2018-06-24T01:52:18.029Z,92.40
2018-06-24T01:54:46.293Z,93.20
2018-06-24T01:57:14.477Z,93.10
2018-06-24T01:59:42.693Z,93.80
2018-06-24T02:02:10.883Z,93.90
2018-06-24T02:04:39.100Z,92.80
2018-06-24T02:07:07.321Z,93.00
2018-06-24T02:09:35.633Z,93.00
2018-06-24T02:12:03.883Z,92.30
2018-06-24T02:17:00.057Z,92.60
2018-06-24T02:19:28.356Z,93.00
2018-06-24T02:21:56.538Z,92.50
2018-06-24T02:24:24.735Z,92.10
2018-06-24T02:26:52.900Z,92.30
2018-06-24T02:29:21.137Z,91.70
2018-06-24T02:31:49.329Z,91.40
2018-06-24T02:34:17.529Z,91.00
2018-06-24T02:36:45.798Z,90.90
2018-06-24T02:39:13.960Z,90.90
2018-06-24T02:41:42.187Z,90.70
2018-06-24T02:44:10.360Z,90.70
2018-06-24T02:46:38.600Z,90.90
2018-06-24T02:49:06.796Z,91.30
2018-06-24T02:51:35.059Z,90.70
2018-06-24T02:54:03.305Z,90.70
2018-06-24T02:56:31.603Z,90.90
2018-06-24T02:58:59.768Z,90.20
2018-06-24T03:01:28.005Z,90.70
2018-06-24T03:03:56.197Z,90.90
2018-06-24T03:06:24.412Z,91.20
2018-06-24T03:08:52.572Z,91.30
2018-06-24T03:11:20.799Z,92.10
2018-06-24T03:13:48.984Z,91.40
2018-06-24T03:16:17.189Z,91.60
2018-06-24T03:18:45.381Z,91.80
2018-06-24T03:21:13.604Z,91.90
2018-06-24T03:23:41.801Z,91.40
2018-06-24T03:26:10.277Z,91.30
2018-06-24T03:28:38.278Z,91.90
2018-06-24T03:31:06.493Z,93.20
2018-06-24T03:33:34.677Z,93.00
2018-06-24T03:36:02.917Z,93.80
2018-06-24T03:38:31.180Z,93.60
2018-06-24T03:40:59.389Z,93.20
2018-06-24T03:43:27.596Z,93.40
2018-06-24T03:45:55.825Z,93.00
2018-06-24T03:48:24.132Z,93.20
2018-06-24T03:50:52.366Z,93.10
2018-06-24T03:53:20.549Z,92.70
2018-06-24T03:55:48.733Z,93.00
2018-06-24T03:58:16.962Z,92.60
2018-06-24T04:00:45.136Z,92.20
2018-06-24T04:03:13.348Z,91.70
2018-06-24T04:05:41.512Z,91.60
2018-06-24T04:08:09.728Z,90.60
2018-06-24T04:10:37.920Z,91.60
2018-06-24T04:13:06.341Z,91.70
2018-06-24T04:15:34.561Z,91.50
2018-06-24T04:18:02.860Z,90.30
2018-06-24T04:20:31.033Z,90.80
2018-06-24T04:22:59.237Z,91.30
2018-06-24T04:25:27.415Z,91.10
2018-06-24T04:27:55.704Z,91.30
2018-06-24T04:30:23.929Z,91.50
2018-06-24T04:32:52.545Z,91.70
2018-06-24T04:35:20.708Z,91.50
2018-06-24T04:37:48.912Z,91.00
2018-06-24T04:40:17.137Z,90.40
2018-06-24T04:42:45.358Z,90.80
2018-06-24T04:45:13.585Z,91.90
2018-06-24T04:47:41.788Z,92.70
2018-06-24T04:50:09.953Z,92.50
2018-06-24T04:52:38.172Z,92.50
2018-06-24T04:55:06.392Z,92.00
2018-06-24T04:57:34.625Z,91.30
2018-06-24T05:00:02.833Z,91.10
2018-06-24T05:02:31.053Z,90.10
2018-06-24T05:04:59.257Z,91.10
2018-06-24T05:07:27.561Z,90.50
2018-06-24T05:09:55.728Z,89.70
2018-06-24T05:12:23.932Z,88.80
2018-06-24T05:14:52.200Z,90.50
2018-06-24T05:17:20.365Z,89.70
2018-06-24T05:19:48.754Z,89.90
2018-06-24T05:22:16.924Z,89.10
2018-06-24T05:24:45.244Z,87.30
2018-06-24T05:27:16.201Z,89.00
2018-06-24T05:29:44.489Z,88.50
2018-06-24T05:32:12.801Z,87.80
2018-06-24T05:34:41.025Z,83.50
2018-06-24T05:37:09.221Z,85.40
2018-06-24T05:39:37.432Z,86.20
2018-06-24T05:42:05.644Z,84.50
2018-06-24T05:44:33.838Z,84.50
2018-06-24T05:47:03.338Z,84.30
2018-06-24T05:49:31.601Z,84.10
2018-06-24T05:51:59.789Z,86.00
2018-06-24T05:54:28.010Z,84.10
2018-06-24T05:56:56.246Z,84.70
2018-06-24T05:59:24.488Z,82.60
2018-06-24T06:01:52.780Z,81.10
2018-06-24T06:04:21.080Z,80.30
2018-06-24T06:06:49.492Z,80.10
2018-06-24T06:11:45.688Z,78.60
2018-06-24T06:14:13.919Z,77.60
2018-06-24T06:16:42.122Z,76.80
2018-06-24T06:19:10.378Z,72.80
2018-06-24T06:21:38.568Z,72.60
2018-06-24T06:24:06.810Z,73.90
2018-06-24T06:26:34.996Z,74.20
2018-06-24T06:29:03.293Z,73.80
2018-06-24T06:31:31.465Z,71.70
2018-06-24T06:33:59.706Z,72.30
2018-06-24T06:36:27.940Z,72.30
2018-06-24T06:38:56.148Z,73.20
2018-06-24T06:41:24.516Z,72.10
2018-06-24T06:43:52.787Z,73.00
2018-06-24T06:46:24.114Z,72.40
2018-06-24T06:48:52.357Z,73.70
2018-06-24T06:51:20.584Z,73.90
2018-06-24T06:53:48.749Z,72.60
2018-06-24T06:56:16.986Z,72.60
2018-06-24T06:58:45.280Z,71.80
2018-06-24T07:01:13.621Z,71.10
2018-06-24T07:03:41.965Z,67.90
2018-06-24T07:06:10.189Z,67.10
2018-06-24T07:08:38.373Z,68.10
2018-06-24T07:11:06.630Z,67.00
2018-06-24T07:13:34.792Z,68.70
2018-06-24T07:16:03.096Z,70.80
2018-06-24T07:18:31.335Z,69.70
2018-06-24T07:20:59.529Z,69.40
2018-06-24T07:23:27.698Z,69.30
2018-06-24T07:25:55.980Z,69.40
2018-06-24T07:28:24.250Z,70.30
2018-06-24T07:30:52.485Z,71.00
2018-06-24T07:33:20.697Z,70.30
2018-06-24T07:35:48.977Z,70.90
2018-06-24T07:38:17.130Z,70.20
2018-06-24T07:40:45.388Z,69.70
2018-06-24T07:43:13.560Z,69.80
2018-06-24T07:48:09.718Z,68.90
2018-06-24T07:50:37.997Z,69.70
2018-06-24T07:53:06.181Z,70.00
2018-06-24T07:55:34.410Z,69.00
2018-06-24T07:58:02.949Z,69.50
2018-06-24T08:00:31.222Z,69.00
2018-06-24T08:02:59.470Z,69.90
2018-06-24T08:05:27.625Z,69.60
2018-06-24T08:07:55.862Z,70.10
2018-06-24T08:10:24.022Z,71.30
2018-06-24T08:12:52.240Z,71.30
2018-06-24T08:15:20.531Z,70.50
2018-06-24T08:17:48.889Z,71.50
2018-06-24T08:20:17.094Z,70.70
2018-06-24T08:22:45.400Z,71.90
2018-06-24T08:25:13.596Z,70.60
2018-06-24T08:27:41.820Z,69.90
2018-06-24T08:30:10.033Z,71.80
2018-06-24T08:32:38.234Z,70.80
2018-06-24T08:35:06.446Z,70.80
2018-06-24T08:37:34.653Z,70.30
2018-06-24T08:40:02.809Z,69.10
2018-06-24T08:42:31.034Z,68.90
2018-06-24T08:44:59.213Z,69.90
2018-06-24T08:47:27.433Z,69.60
2018-06-24T08:49:55.625Z,70.50
2018-06-24T08:52:23.842Z,70.30
2018-06-24T08:54:52.009Z,68.60
2018-06-24T08:57:20.212Z,67.30
2018-06-24T08:59:48.398Z,66.40
2018-06-24T09:02:16.654Z,64.90
2018-06-24T09:04:44.826Z,64.70
2018-06-24T09:07:13.226Z,66.30
2018-06-24T09:09:41.402Z,66.10
2018-06-24T09:12:09.641Z,66.10
2018-06-24T09:14:37.830Z,66.50
2018-06-24T09:17:06.057Z,66.30
2018-06-24T09:19:34.296Z,67.70
2018-06-24T09:22:02.748Z,67.50
2018-06-24T09:24:30.968Z,68.00
2018-06-24T09:26:59.167Z,67.40
2018-06-24T09:29:27.477Z,67.00
2018-06-24T09:31:55.773Z,67.50
2018-06-24T09:34:24.005Z,67.90
2018-06-24T09:36:52.269Z,68.20
2018-06-24T09:39:20.517Z,67.20
2018-06-24T09:41:48.751Z,67.80
2018-06-24T09:44:16.994Z,69.30
2018-06-24T09:46:45.193Z,67.00
2018-06-24T09:49:13.481Z,68.10
2018-06-24T09:51:41.685Z,66.50
2018-06-24T09:54:09.941Z,65.10
2018-06-24T09:56:38.208Z,65.10
2018-06-24T09:59:06.469Z,66.20
2018-06-24T10:01:34.712Z,65.60
2018-06-24T10:04:02.999Z,65.30
2018-06-24T10:06:31.202Z,64.50
2018-06-24T10:08:59.469Z,64.80
2018-06-24T10:11:27.762Z,65.00
2018-06-24T10:13:56.300Z,66.40
2018-06-24T10:16:24.485Z,64.80
2018-06-24T10:18:52.868Z,66.00
2018-06-24T10:21:21.181Z,64.70
2018-06-24T10:23:50.750Z,63.20
2018-06-24T10:26:19.109Z,61.10
2018-06-24T10:28:47.413Z,61.00
2018-06-24T10:33:43.814Z,60.90
2018-06-24T10:36:12.048Z,60.50
2018-06-24T10:38:40.550Z,60.50
2018-06-24T10:41:09.429Z,60.80
2018-06-24T10:43:37.973Z,60.20
2018-06-24T10:46:06.269Z,60.40
2018-06-24T10:48:34.667Z,61.30
2018-06-24T10:51:03.216Z,60.20
2018-06-24T10:53:31.806Z,60.30
2018-06-24T10:55:59.993Z,60.80
2018-06-24T10:58:28.253Z,62.50
2018-06-24T11:00:56.524Z,62.90
2018-06-24T11:03:24.789Z,63.80
2018-06-24T11:05:53.140Z,63.20
2018-06-24T11:08:21.397Z,63.60
2018-06-24T11:10:49.627Z,62.80
2018-06-24T11:13:17.899Z,61.30
2018-06-24T11:15:46.138Z,62.10
2018-06-24T11:18:14.422Z,61.00
2018-06-24T11:20:42.709Z,63.10
2018-06-24T11:23:11.348Z,60.50
2018-06-24T11:25:39.598Z,60.20
2018-06-24T11:28:07.894Z,59.60
2018-06-24T11:30:36.147Z,60.40
2018-06-24T11:35:32.422Z,57.30
2018-06-24T11:38:00.951Z,57.30
2018-06-24T11:40:29.176Z,58.20
2018-06-24T11:42:57.446Z,59.00
2018-06-24T11:45:25.701Z,58.90
2018-06-24T11:47:53.956Z,58.90
2018-06-24T11:50:22.142Z,59.90
2018-06-24T11:52:50.385Z,62.10
2018-06-24T11:55:19.225Z,61.80
2018-06-24T11:57:47.488Z,63.40
2018-06-24T12:00:15.771Z,63.80
2018-06-24T12:02:44.091Z,63.20
2018-06-24T12:05:12.317Z,62.40
2018-06-24T12:07:40.678Z,64.20
2018-06-24T12:10:08.933Z,65.80
2018-06-24T12:12:37.142Z,66.80
2018-06-24T12:15:05.470Z,65.10
2018-06-24T12:17:33.698Z,64.20
2018-06-24T12:20:01.942Z,65.30
2018-06-24T12:22:30.122Z,65.70
2018-06-24T12:24:58.387Z,65.80
2018-06-24T12:27:26.638Z,66.80
2018-06-24T12:29:54.938Z,65.20
2018-06-24T12:32:23.177Z,65.50
2018-06-24T12:34:51.406Z,64.90
2018-06-24T12:37:19.612Z,64.50
2018-06-24T12:39:47.854Z,66.90
2018-06-24T12:42:16.099Z,65.10
2018-06-24T12:44:44.321Z,64.20
2018-06-24T12:47:12.513Z,64.80
2018-06-24T12:49:40.738Z,63.00
2018-06-24T12:52:08.921Z,61.30
2018-06-24T12:54:37.158Z,60.00
2018-06-24T12:57:05.405Z,60.90
2018-06-24T12:59:33.913Z,59.90
2018-06-24T13:02:01.869Z,62.10
2018-06-24T13:04:30.245Z,59.20
2018-06-24T13:06:59.213Z,59.40
2018-06-24T13:09:27.498Z,57.70
2018-06-24T13:11:56.171Z,59.30
2018-06-24T13:14:24.585Z,58.40
2018-06-24T13:16:53.134Z,58.50
2018-06-24T13:19:21.414Z,59.30
2018-06-24T13:21:49.797Z,57.40
2018-06-24T13:24:17.990Z,58.20
2018-06-24T13:26:46.313Z,58.40
2018-06-24T13:29:14.560Z,61.10
2018-06-24T13:31:42.865Z,59.90
2018-06-24T13:34:11.141Z,61.30
2018-06-24T13:36:39.372Z,61.60
2018-06-24T13:39:09.365Z,59.30
2018-06-24T13:41:37.616Z,60.80
2018-06-24T13:44:06.237Z,60.80
2018-06-24T13:46:34.460Z,61.10
2018-06-24T13:49:02.810Z,62.30
2018-06-24T13:51:31.026Z,63.10
2018-06-24T13:53:59.224Z,62.90
2018-06-24T13:56:27.481Z,62.40
2018-06-24T13:58:56.915Z,63.20
2018-06-24T14:01:25.174Z,61.50
2018-06-24T14:03:53.396Z,63.70
2018-06-24T14:06:21.613Z,60.70
2018-06-24T14:08:49.797Z,58.70
2018-06-24T14:11:18.065Z,58.80
2018-06-24T14:13:46.253Z,58.70
2018-06-24T14:16:14.481Z,60.90
2018-06-24T14:18:42.666Z,61.30
2018-06-24T14:21:11.622Z,59.40
2018-06-24T14:23:39.883Z,60.90
2018-06-24T14:26:08.158Z,59.70
2018-06-24T14:28:36.474Z,61.20
2018-06-24T14:31:05.456Z,61.60
2018-06-24T14:33:33.709Z,61.80
2018-06-24T14:36:02.013Z,59.50
2018-06-24T14:38:30.267Z,60.00
2018-06-24T14:40:58.488Z,61.40
2018-06-24T14:43:26.673Z,60.60
2018-06-24T14:45:54.918Z,61.70
2018-06-24T14:48:23.743Z,59.00
2018-06-24T14:50:52.018Z,58.60
2018-06-24T14:53:20.285Z,60.30
2018-06-24T14:55:48.488Z,59.60
2018-06-24T14:58:16.706Z,59.20
2018-06-24T15:00:44.911Z,60.50
2018-06-24T15:03:13.132Z,60.80
2018-06-24T15:05:41.477Z,60.30
2018-06-24T15:08:09.742Z,62.10
2018-06-24T15:10:37.917Z,60.90
2018-06-24T15:13:06.146Z,61.10
2018-06-24T15:15:34.327Z,60.50
2018-06-24T15:18:02.547Z,61.00
2018-06-24T15:20:30.769Z,59.60
2018-06-24T15:22:59.049Z,60.00
2018-06-24T15:25:27.353Z,60.40
2018-06-24T15:27:55.833Z,59.30
2018-06-24T15:30:24.026Z,60.60
2018-06-24T15:32:52.307Z,59.80
2018-06-24T15:35:20.492Z,59.40
2018-06-24T15:37:48.861Z,60.40
2018-06-24T15:40:17.089Z,62.10
2018-06-24T15:42:45.379Z,60.40
2018-06-24T15:45:13.598Z,60.00
2018-06-24T15:47:41.865Z,60.50
2018-06-24T15:50:10.050Z,60.30
2018-06-24T15:52:38.365Z,61.80
2018-06-24T15:55:06.657Z,62.70
2018-06-24T15:57:34.900Z,63.10
2018-06-24T16:00:03.209Z,62.20
2018-06-24T16:02:31.449Z,61.30
2018-06-24T16:04:59.653Z,61.20
2018-06-24T16:07:27.856Z,62.10
2018-06-24T16:09:56.120Z,62.70
2018-06-24T16:12:24.307Z,62.30
2018-06-24T16:14:52.582Z,62.80
2018-06-24T16:17:20.782Z,63.80
2018-06-24T16:19:48.997Z,62.50
2018-06-24T16:22:17.190Z,62.40
2018-06-24T16:24:45.400Z,61.70
2018-06-24T16:27:13.634Z,64.40
2018-06-24T16:29:41.857Z,64.80
2018-06-24T16:32:10.053Z,64.50
2018-06-24T16:34:38.274Z,64.60
2018-06-24T16:37:06.509Z,62.20
2018-06-24T16:39:35.300Z,62.20
2018-06-24T16:42:04.122Z,62.80
2018-06-24T16:44:32.827Z,63.60
2018-06-24T16:47:01.554Z,62.90
2018-06-24T16:49:30.352Z,62.80
2018-06-24T16:51:59.164Z,62.80
2018-06-24T16:54:27.941Z,63.20
2018-06-24T16:56:56.645Z,63.00
2018-06-24T16:59:25.623Z,63.10
2018-06-24T17:01:54.581Z,63.10
2018-06-24T17:04:23.363Z,64.20
2018-06-24T17:06:51.989Z,63.90
2018-06-24T17:09:20.199Z,64.10
2018-06-24T17:11:48.405Z,63.90
2018-06-24T17:14:16.606Z,64.00
2018-06-24T17:16:44.794Z,65.20
2018-06-24T17:19:13.017Z,66.80
2018-06-24T17:21:41.254Z,66.10
2018-06-24T17:24:09.464Z,65.60
2018-06-24T17:26:37.658Z,66.80
2018-06-24T17:29:05.906Z,65.80
2018-06-24T17:31:34.101Z,64.90
2018-06-24T17:34:02.374Z,65.90
2018-06-24T17:36:30.666Z,67.10
2018-06-24T17:38:58.874Z,66.00
2018-06-24T17:41:27.264Z,66.60
2018-06-24T17:43:55.675Z,67.10
2018-06-24T17:46:24.097Z,67.70
2018-06-24T17:48:52.368Z,67.60
2018-06-24T17:51:20.664Z,68.10
2018-06-24T17:53:48.970Z,68.10
2018-06-24T17:56:17.196Z,68.90
2018-06-24T17:58:45.421Z,67.80
2018-06-24T18:01:13.749Z,68.60
2018-06-24T18:03:42.145Z,68.20
2018-06-24T18:06:10.546Z,68.50
2018-06-24T18:08:38.781Z,68.20
2018-06-24T18:11:07.106Z,68.30
2018-06-24T18:13:35.327Z,68.60
2018-06-24T18:16:03.706Z,69.00
2018-06-24T18:18:31.986Z,69.30
2018-06-24T18:21:00.482Z,68.50
2018-06-24T18:23:28.701Z,68.90
2018-06-24T18:25:57.070Z,68.80
2018-06-24T18:28:25.278Z,69.20
2018-06-24T18:30:53.526Z,69.30
2018-06-24T18:33:21.806Z,68.90
2018-06-24T18:35:50.053Z,69.90
2018-06-24T18:38:19.197Z,70.10
2018-06-24T18:40:47.444Z,69.10
2018-06-24T18:43:15.798Z,70.20
2018-06-24T18:45:44.154Z,69.60
2018-06-24T18:48:12.336Z,70.80
2018-06-24T18:50:40.662Z,70.80
2018-06-24T18:53:08.903Z,71.00
2018-06-24T18:55:37.148Z,70.60
2018-06-24T18:58:05.873Z,71.10
2018-06-24T19:00:34.157Z,73.10
2018-06-24T19:03:02.610Z,73.50
2018-06-24T19:05:31.319Z,72.80
2018-06-24T19:07:59.701Z,73.10
2018-06-24T19:10:27.902Z,72.90
2018-06-24T19:12:56.159Z,73.40
2018-06-24T19:15:24.511Z,74.20
2018-06-24T19:17:52.742Z,74.50
2018-06-24T19:20:21.019Z,74.10
2018-06-24T19:22:49.772Z,74.50
2018-06-24T19:25:18.033Z,74.00
2018-06-24T19:27:46.397Z,73.80
2018-06-24T19:30:14.717Z,72.90
2018-06-24T19:32:43.002Z,72.40
2018-06-24T19:35:11.161Z,72.40
2018-06-24T19:37:39.410Z,73.40
2018-06-24T19:40:07.690Z,72.80
2018-06-24T19:42:35.905Z,73.70
2018-06-24T19:45:04.581Z,72.60
2018-06-24T19:47:33.441Z,72.60
2018-06-24T19:50:01.670Z,72.70
2018-06-24T19:52:30.615Z,73.30
2018-06-24T19:54:58.809Z,73.70
2018-06-24T19:57:27.045Z,74.50
2018-06-24T19:59:55.217Z,74.10
2018-06-24T20:02:23.544Z,73.90
2018-06-24T20:04:51.727Z,73.90
2018-06-24T20:07:20.120Z,74.70
2018-06-24T20:09:48.314Z,75.30
2018-06-24T20:12:16.542Z,77.00
2018-06-24T20:14:44.875Z,76.20
2018-06-24T20:17:13.169Z,74.10
2018-06-24T20:19:41.422Z,74.10
2018-06-24T20:22:10.529Z,74.50
2018-06-24T20:24:39.677Z,74.20
2018-06-24T20:27:08.153Z,73.30
2018-06-24T20:29:36.390Z,73.00
2018-06-24T20:32:04.613Z,73.10
2018-06-24T20:34:33.233Z,73.20
2018-06-24T20:37:01.421Z,72.80
2018-06-24T20:39:29.613Z,72.30
2018-06-24T20:41:57.948Z,73.40
2018-06-24T20:44:26.261Z,75.20
2018-06-24T20:46:54.457Z,75.70
2018-06-24T20:51:50.947Z,74.00
2018-06-24T20:54:19.257Z,74.10
2018-06-24T20:56:47.463Z,73.80
2018-06-24T20:59:15.673Z,73.70
2018-06-24T21:01:43.856Z,73.70
2018-06-24T21:04:12.085Z,73.70
2018-06-24T21:06:40.294Z,73.80
2018-06-24T21:09:10.204Z,73.90
2018-06-24T21:11:38.422Z,74.00
2018-06-24T21:14:06.736Z,74.60
2018-06-24T21:16:34.925Z,74.10
2018-06-24T21:19:03.204Z,73.90
2018-06-24T21:21:31.373Z,73.90
2018-06-24T21:23:59.585Z,74.00
2018-06-24T21:28:56.085Z,73.60
2018-06-24T21:31:24.279Z,73.30
2018-06-24T21:33:52.982Z,73.00
2018-06-24T21:36:21.639Z,73.40
2018-06-24T21:38:50.370Z,74.00
2018-06-24T21:41:19.041Z,73.30
2018-06-24T21:43:47.732Z,73.90
2018-06-24T21:46:16.386Z,73.30
2018-06-24T21:48:45.317Z,73.30
2018-06-24T21:51:14.014Z,73.40
2018-06-24T21:53:42.248Z,73.90
2018-06-24T21:56:10.608Z,74.00
2018-06-24T21:58:38.840Z,74.50
2018-06-24T22:01:07.145Z,73.90
2018-06-24T22:03:35.320Z,74.30
2018-06-24T22:06:03.624Z,74.00
2018-06-24T22:08:31.835Z,73.80
2018-06-24T22:11:00.066Z,73.70
2018-06-24T22:13:28.288Z,73.80
2018-06-24T22:15:56.536Z,73.60
2018-06-24T22:18:24.714Z,73.40
2018-06-24T22:20:52.952Z,74.30
2018-06-24T22:23:21.146Z,74.10
2018-06-24T22:25:49.370Z,74.00
2018-06-24T22:28:17.584Z,74.40
2018-06-24T22:30:45.849Z,74.60
2018-06-24T22:33:14.036Z,75.30
2018-06-24T22:35:42.284Z,74.60
2018-06-24T22:38:10.480Z,75.40
2018-06-24T22:40:38.688Z,76.00
2018-06-24T22:43:06.876Z,76.40
2018-06-24T22:45:35.142Z,77.00
2018-06-24T22:48:03.378Z,77.60
2018-06-24T22:50:31.596Z,76.80
2018-06-24T22:52:59.833Z,77.20
2018-06-24T22:55:28.049Z,77.20
2018-06-24T22:57:56.208Z,78.00
2018-06-24T23:00:24.541Z,78.30
2018-06-24T23:02:52.757Z,78.50
2018-06-24T23:05:20.980Z,78.70
2018-06-24T23:07:49.209Z,78.70
2018-06-24T23:10:17.468Z,78.80
2018-06-24T23:12:45.668Z,78.50
2018-06-24T23:15:13.853Z,78.80
2018-06-24T23:17:42.088Z,79.60
2018-06-24T23:20:10.299Z,79.20
2018-06-24T23:22:38.531Z,79.50
2018-06-24T23:25:06.812Z,79.40
2018-06-24T23:27:35.041Z,79.40
2018-06-24T23:30:03.769Z,80.10
2018-06-24T23:32:32.013Z,80.50
2018-06-24T23:35:00.301Z,79.70
2018-06-24T23:37:28.555Z,79.80
2018-06-24T23:39:56.756Z,80.50
2018-06-24T23:42:24.997Z,80.00
2018-06-24T23:44:53.198Z,80.10
2018-06-24T23:47:21.457Z,80.20
2018-06-24T23:49:49.656Z,80.50
2018-06-24T23:52:17.884Z,80.80
2018-06-24T23:54:46.094Z,80.90
2018-06-24T23:57:14.285Z,81.80
